createdAt,value
2018-06-29T00:00:04.730Z,9.90
2018-06-29T00:02:40.011Z,11.03
2018-06-29T00:05:11.900Z,10.07
2018-06-29T00:07:44.660Z,9.33
2018-06-29T00:10:25.724Z,11.03
2018-06-29T00:13:02.610Z,10.07
2018-06-29T00:15:34.543Z,10.60
2018-06-29T00:18:07.709Z,11.50
2018-06-29T00:20:39.049Z,12.13
2018-06-29T00:23:09.656Z,10.03
2018-06-29T00:25:42.636Z,9.73
2018-06-29T00:28:14.434Z,11.00
2018-06-29T00:30:50.121Z,9.97
2018-06-29T00:33:30.122Z,10.80
2018-06-29T00:36:01.071Z,11.33
2018-06-29T00:38:32.382Z,11.07
2018-06-29T00:41:12.531Z,10.50
2018-06-29T00:43:43.733Z,9.83
2018-06-29T00:46:15.720Z,9.90
2018-06-29T00:48:55.764Z,8.63
2018-06-29T00:51:27.584Z,10.03
2018-06-29T00:53:59.764Z,10.20
2018-06-29T00:56:36.495Z,8.23
2018-06-29T00:59:08.454Z,8.13
2018-06-29T01:01:48.571Z,8.60
2018-06-29T01:04:27.440Z,9.13
2018-06-29T01:06:58.747Z,7.73
2018-06-29T01:09:31.341Z,9.70
2018-06-29T01:12:11.075Z,8.80
2018-06-29T01:14:44.034Z,10.17
2018-06-29T01:17:16.295Z,10.50
2018-06-29T01:19:48.045Z,10.77
2018-06-29T01:22:27.636Z,9.93
2018-06-29T01:25:07.456Z,12.30
2018-06-29T01:27:39.557Z,10.13
2018-06-29T01:30:10.737Z,12.50
2018-06-29T01:32:42.077Z,16.70
2018-06-29T01:35:17.376Z,15.37
2018-06-29T01:37:57.826Z,14.27
2018-06-29T01:40:37.985Z,12.07
2018-06-29T01:43:09.684Z,17.27
2018-06-29T01:45:42.448Z,15.80
2018-06-29T01:48:14.668Z,17.57
2018-06-29T01:50:46.439Z,17.77
2018-06-29T01:53:18.028Z,16.80
2018-06-29T01:55:58.164Z,17.30
2018-06-29T01:58:30.124Z,20.67
2018-06-29T02:01:10.200Z,19.20
2018-06-29T02:06:24.373Z,20.53
2018-06-29T02:08:55.801Z,18.90
2018-06-29T02:11:27.382Z,20.83
2018-06-29T02:13:59.643Z,20.00
2018-06-29T02:16:34.655Z,20.80
2018-06-29T02:19:14.353Z,20.13
2018-06-29T02:21:54.202Z,19.97
2018-06-29T02:24:32.046Z,22.37
2018-06-29T02:27:03.067Z,16.50
2018-06-29T02:29:34.507Z,18.27
2018-06-29T02:32:04.967Z,19.97
2018-06-29T02:34:45.509Z,18.70
2018-06-29T02:37:17.259Z,17.40
2018-06-29T02:39:48.949Z,18.57
2018-06-29T02:42:20.630Z,20.23
2018-06-29T04:13:18.185Z,21.80
2018-06-29T04:15:54.354Z,21.23
2018-06-29T04:18:34.702Z,22.50
2018-06-29T04:21:14.618Z,25.93
2018-06-29T04:23:46.186Z,25.90
2018-06-29T04:26:22.346Z,27.53
2018-06-29T04:28:53.190Z,22.77
2018-06-29T04:31:32.456Z,19.60
2018-06-29T04:34:12.449Z,21.40
2018-06-29T04:36:49.458Z,21.70
2018-06-29T04:39:20.927Z,20.00
2018-06-29T04:41:54.148Z,21.53
2018-06-29T04:44:27.757Z,19.17
2018-06-29T04:47:03.437Z,17.93
2018-06-29T04:49:39.189Z,20.83
2018-06-29T04:52:11.289Z,19.43
2018-06-29T04:54:43.761Z,17.83
2018-06-29T04:57:20.380Z,15.90
2018-06-29T05:00:00.525Z,16.90
2018-06-29T05:02:38.166Z,16.10
2018-06-29T05:05:10.026Z,16.73
2018-06-29T05:07:44.797Z,15.30
2018-06-29T05:10:23.117Z,15.73
2018-06-29T05:13:01.728Z,12.47
2018-06-29T05:15:43.096Z,14.77
2018-06-29T05:18:21.859Z,14.03
2018-06-29T05:20:53.276Z,13.77
2018-06-29T05:23:24.126Z,12.27
2018-06-29T05:25:56.177Z,12.77
2018-06-29T05:28:29.272Z,11.07
2018-06-29T05:31:09.370Z,11.10
2018-06-29T05:33:43.896Z,9.93
2018-06-29T05:36:19.147Z,9.63
2018-06-29T05:38:50.978Z,10.23
2018-06-29T05:41:28.992Z,10.07
2018-06-29T05:44:09.761Z,10.07
2018-06-29T05:46:41.564Z,7.20
2018-06-29T05:49:18.222Z,6.77
2018-06-29T05:51:49.554Z,6.80
2018-06-29T05:54:21.563Z,5.07
2018-06-29T05:56:52.984Z,4.03
2018-06-29T05:59:29.633Z,5.83
2018-06-29T06:02:00.617Z,4.70
2018-06-29T06:04:41.301Z,5.03
2018-06-29T06:07:22.366Z,5.07
2018-06-29T06:10:02.661Z,5.17
2018-06-29T06:12:34.473Z,6.63
2018-06-29T06:15:14.608Z,5.93
2018-06-29T06:17:54.860Z,7.63
2018-06-29T06:20:29.137Z,8.57
2018-06-29T06:23:25.300Z,6.97
2018-06-29T06:26:05.293Z,7.27
2018-06-29T06:28:37.794Z,6.27
2018-06-29T06:31:17.721Z,6.77
2018-06-29T06:33:49.421Z,5.90
2018-06-29T06:36:25.462Z,6.60
2018-06-29T06:38:56.702Z,6.43
2018-06-29T06:41:36.927Z,5.67
2018-06-29T06:44:08.355Z,6.30
2018-06-29T06:46:40.045Z,6.57
2018-06-29T06:49:11.824Z,7.30
2018-06-29T06:51:43.016Z,6.50
2018-06-29T06:54:14.245Z,7.00
2018-06-29T06:56:49.115Z,6.40
2018-06-29T06:59:20.597Z,7.67
2018-06-29T07:02:00.308Z,6.40
2018-06-29T07:04:40.195Z,7.13
2018-06-29T07:07:12.315Z,6.13
2018-06-29T07:09:52.529Z,6.60
2018-06-29T07:12:32.737Z,5.80
2018-06-29T07:15:09.131Z,7.30
2018-06-29T07:17:41.011Z,7.33
2018-06-29T07:20:16.962Z,6.07
2018-06-29T07:22:50.061Z,5.57
2018-06-29T07:25:22.011Z,5.40
2018-06-29T07:27:53.502Z,5.23
2018-06-29T07:30:24.562Z,4.97
2018-06-29T07:32:56.072Z,4.43
2018-06-29T07:35:28.201Z,5.03
2018-06-29T07:37:59.502Z,5.13
2018-06-29T07:40:31.291Z,4.50
2018-06-29T07:43:02.722Z,4.87
2018-06-29T07:45:34.092Z,4.63
2018-06-29T07:48:05.652Z,4.40
2018-06-29T07:50:36.931Z,5.30
2018-06-29T07:53:08.334Z,4.50
2018-06-29T07:55:39.482Z,4.10
2018-06-29T07:58:12.265Z,6.53
2018-06-29T08:00:43.595Z,4.40
2018-06-29T08:03:16.132Z,5.10
2018-06-29T08:05:47.923Z,5.10
2018-06-29T08:08:19.001Z,5.10
2018-06-29T08:10:51.673Z,4.57
2018-06-29T08:13:23.931Z,4.90
2018-06-29T08:15:55.611Z,4.53
2018-06-29T08:18:27.302Z,4.70
2018-06-29T08:21:03.141Z,4.60
2018-06-29T08:23:35.831Z,4.30
2018-06-29T08:26:16.964Z,4.73
2018-06-29T08:28:49.760Z,5.10
2018-06-29T08:31:29.590Z,5.10
2018-06-29T08:34:06.839Z,4.77
2018-06-29T08:36:46.131Z,4.63
2018-06-29T08:39:26.093Z,5.03
2018-06-29T08:41:59.589Z,4.47
2018-06-29T08:44:39.996Z,4.60
2018-06-29T08:47:17.803Z,4.27
2018-06-29T08:49:57.807Z,4.37
2018-06-29T08:52:37.646Z,4.17
2018-06-29T08:55:18.771Z,3.47
2018-06-29T08:57:59.085Z,3.30
2018-06-29T09:00:39.257Z,3.13
2018-06-29T09:03:19.943Z,2.93
2018-06-29T09:05:59.751Z,2.60
2018-06-29T09:08:39.415Z,3.20
2018-06-29T09:11:17.887Z,2.63
2018-06-29T09:13:54.948Z,2.90
2018-06-29T09:16:35.381Z,2.30
2018-06-29T09:19:15.578Z,2.37
2018-06-29T09:21:55.451Z,2.30
2018-06-29T09:24:35.755Z,3.50
2018-06-29T09:27:11.889Z,1.87
2018-06-29T09:29:50.113Z,2.07
2018-06-29T09:32:22.710Z,1.90
2018-06-29T09:35:02.962Z,1.90
2018-06-29T09:37:40.553Z,1.97
2018-06-29T09:40:15.127Z,2.00
2018-06-29T09:42:54.914Z,3.30
2018-06-29T09:45:26.965Z,1.80
2018-06-29T09:48:07.302Z,2.10
2018-06-29T09:50:43.011Z,2.00
2018-06-29T09:53:15.022Z,1.60
2018-06-29T09:55:47.312Z,2.03
2018-06-29T09:58:21.723Z,1.47
2018-06-29T10:01:02.101Z,1.97
2018-06-29T10:03:38.331Z,2.60
2018-06-29T10:06:12.994Z,2.27
2018-06-29T10:08:48.527Z,1.57
2018-06-29T10:11:26.541Z,2.10
2018-06-29T10:14:06.817Z,1.40
2018-06-29T10:16:43.209Z,1.80
2018-06-29T10:19:22.872Z,1.50
2018-06-29T10:21:58.553Z,1.70
2018-06-29T10:24:31.404Z,1.50
2018-06-29T10:27:06.591Z,1.30
2018-06-29T10:29:40.321Z,1.80
2018-06-29T10:32:20.651Z,1.40
2018-06-29T10:35:00.839Z,1.50
2018-06-29T10:37:41.065Z,1.83
2018-06-29T10:40:18.251Z,1.50
2018-06-29T10:42:57.530Z,1.93
2018-06-29T10:45:34.136Z,1.30
2018-06-29T10:48:08.015Z,1.50
2018-06-29T10:50:42.285Z,1.57
2018-06-29T10:53:14.976Z,1.30
2018-06-29T10:55:48.095Z,1.57
2018-06-29T10:58:26.117Z,1.30
2018-06-29T11:01:02.329Z,1.40
2018-06-29T11:03:42.448Z,1.23
2018-06-29T11:06:20.579Z,1.90
2018-06-29T11:08:56.930Z,1.40
2018-06-29T11:11:34.906Z,2.63
2018-06-29T11:14:10.498Z,1.10
2018-06-29T11:16:48.225Z,1.07
2018-06-29T11:19:25.466Z,1.80
2018-06-29T11:22:02.953Z,1.33
2018-06-29T11:24:40.329Z,1.27
2018-06-29T11:27:20.335Z,1.00
2018-06-29T11:29:53.154Z,1.50
2018-06-29T11:32:29.751Z,2.13
2018-06-29T11:35:03.050Z,2.17
2018-06-29T11:37:39.216Z,1.10
2018-06-29T11:40:17.641Z,0.90
2018-06-29T11:42:54.702Z,0.73
2018-06-29T11:45:31.858Z,1.00
2018-06-29T11:48:08.128Z,1.83
2018-06-29T11:50:46.257Z,0.87
2018-06-29T11:53:26.475Z,1.77
2018-06-29T11:56:06.695Z,0.83
2018-06-29T11:58:44.981Z,1.00
2018-06-29T12:01:24.196Z,0.97
2018-06-29T12:04:01.805Z,0.80
2018-06-29T12:06:35.705Z,1.70
2018-06-29T12:09:13.214Z,0.70
2018-06-29T12:11:50.560Z,1.37
2018-06-29T12:14:31.972Z,0.67
2018-06-29T12:17:05.583Z,0.90
2018-06-29T12:19:42.065Z,1.10
2018-06-29T12:22:18.259Z,2.03
2018-06-29T12:24:55.972Z,1.17
2018-06-29T12:27:32.101Z,1.90
2018-06-29T12:30:10.241Z,1.30
2018-06-29T12:32:47.956Z,0.60
2018-06-29T12:35:26.296Z,1.47
2018-06-29T12:38:03.431Z,0.80
2018-06-29T12:40:43.887Z,0.70
2018-06-29T12:43:24.122Z,0.80
2018-06-29T12:46:01.050Z,0.77
2018-06-29T12:48:41.759Z,1.00
2018-06-29T12:51:20.857Z,1.27
2018-06-29T12:53:59.484Z,1.20
2018-06-29T12:56:37.475Z,1.10
2018-06-29T12:59:17.016Z,1.40
2018-06-29T13:01:50.007Z,1.47
2018-06-29T13:04:26.154Z,2.03
2018-06-29T13:07:03.654Z,0.90
2018-06-29T13:09:35.465Z,0.90
2018-06-29T13:12:08.604Z,0.97
2018-06-29T13:14:48.130Z,1.13
2018-06-29T13:17:24.983Z,1.00
2018-06-29T13:19:58.393Z,2.13
2018-06-29T13:22:30.504Z,1.23
2018-06-29T13:25:06.747Z,1.80
2018-06-29T13:27:43.689Z,1.10
2018-06-29T13:30:20.955Z,1.10
2018-06-29T13:32:58.092Z,1.20
2018-06-29T13:35:35.983Z,0.80
2018-06-29T13:38:13.654Z,1.00
2018-06-29T13:40:50.432Z,1.33
2018-06-29T13:43:27.169Z,0.70
2018-06-29T13:46:02.177Z,1.13
2018-06-29T13:48:34.039Z,0.47
2018-06-29T13:51:08.347Z,0.50
2018-06-29T13:53:43.553Z,0.80
2018-06-29T13:56:19.137Z,0.67
2018-06-29T13:58:55.284Z,0.63
2018-06-29T14:01:32.326Z,0.83
2018-06-29T14:04:08.602Z,0.90
2018-06-29T14:06:44.458Z,0.70
2018-06-29T14:09:21.045Z,0.80
2018-06-29T14:11:58.093Z,1.10
2018-06-29T14:14:35.871Z,1.20
2018-06-29T14:17:09.371Z,0.90
2018-06-29T14:19:42.501Z,0.90
2018-06-29T14:22:19.249Z,2.70
2018-06-29T14:24:55.648Z,2.27
2018-06-29T14:27:31.815Z,1.20
2018-06-29T14:30:08.052Z,1.40
2018-06-29T14:32:43.990Z,1.30
2018-06-29T14:35:17.571Z,2.27
2018-06-29T14:37:55.287Z,1.30
2018-06-29T14:40:32.258Z,1.53
2018-06-29T14:43:12.321Z,1.63
2018-06-29T14:45:48.579Z,2.13
2018-06-29T14:48:22.039Z,1.50
2018-06-29T14:50:59.687Z,1.60
2018-06-29T14:53:36.115Z,1.77
2018-06-29T14:56:12.328Z,1.60
2018-06-29T14:58:47.319Z,1.70
2018-06-29T15:01:24.821Z,2.30
2018-06-29T15:04:01.041Z,1.87
2018-06-29T15:06:38.111Z,1.53
2018-06-29T15:09:14.411Z,1.60
2018-06-29T15:11:51.479Z,2.20
2018-06-29T15:14:26.546Z,1.70
2018-06-29T15:17:00.287Z,1.60
2018-06-29T15:19:36.952Z,1.70
2018-06-29T15:22:13.073Z,2.07
2018-06-29T15:24:50.979Z,1.47
2018-06-29T15:27:27.974Z,1.90
2018-06-29T15:30:04.579Z,1.57
2018-06-29T15:32:40.899Z,2.17
2018-06-29T15:35:17.528Z,1.70
2018-06-29T15:37:55.432Z,1.70
2018-06-29T15:40:31.914Z,1.50
2018-06-29T15:43:11.841Z,1.43
2018-06-29T15:45:48.700Z,3.60
2018-06-29T15:48:20.840Z,1.70
2018-06-29T15:50:56.689Z,2.27
2018-06-29T15:53:36.891Z,1.97
2018-06-29T15:56:17.583Z,1.93
2018-06-29T15:58:56.675Z,1.50
2018-06-29T16:01:36.643Z,3.37
2018-06-29T16:04:17.363Z,1.43
2018-06-29T16:06:57.081Z,2.00
2018-06-29T16:09:35.312Z,1.33
2018-06-29T16:12:13.886Z,1.90
2018-06-29T16:14:53.989Z,1.10
2018-06-29T16:17:30.198Z,1.60
2018-06-29T16:20:11.850Z,1.90
2018-06-29T16:22:52.352Z,1.60
2018-06-29T16:25:30.021Z,1.43
2018-06-29T16:28:08.389Z,1.50
2018-06-29T16:30:47.115Z,1.40
2018-06-29T16:33:23.048Z,1.40
2018-06-29T16:35:59.132Z,2.60
2018-06-29T16:38:37.127Z,1.77
2018-06-29T16:41:15.065Z,2.17
2018-06-29T16:43:55.429Z,2.27
2018-06-29T16:46:35.168Z,2.07
2018-06-29T16:49:10.767Z,2.40
2018-06-29T16:51:49.117Z,2.20
2018-06-29T16:54:26.661Z,2.00
2018-06-29T16:57:02.472Z,2.10
2018-06-29T16:59:39.760Z,1.93
2018-06-29T17:02:11.030Z,1.90
2018-06-29T17:04:43.042Z,1.87
2018-06-29T17:07:23.361Z,1.70
2018-06-29T17:10:01.150Z,1.67
2018-06-29T17:12:41.239Z,2.13
2018-06-29T17:15:21.524Z,2.00
2018-06-29T17:18:01.850Z,1.80
2018-06-29T17:20:37.138Z,2.00
2018-06-29T17:23:14.730Z,2.07
2018-06-29T17:25:52.154Z,1.83
2018-06-29T17:28:29.811Z,1.97
2018-06-29T17:31:05.906Z,2.10
2018-06-29T17:33:42.499Z,2.30
2018-06-29T17:36:22.696Z,1.97
2018-06-29T17:39:05.830Z,2.17
2018-06-29T17:41:50.970Z,2.50
2018-06-29T17:44:33.692Z,2.63
2018-06-29T17:47:19.287Z,2.27
2018-06-29T17:50:01.390Z,2.17
2018-06-29T17:52:43.990Z,2.30
2018-06-29T17:55:25.469Z,2.43
2018-06-29T17:58:02.096Z,2.33
2018-06-29T18:00:39.828Z,2.40
2018-06-29T18:03:21.766Z,2.60
2018-06-29T18:06:02.858Z,2.80
2018-06-29T18:08:43.517Z,2.70
2018-06-29T18:11:40.004Z,2.33
2018-06-29T18:14:25.951Z,2.60
2018-06-29T18:17:10.094Z,2.60
2018-06-29T18:19:50.310Z,2.37
2018-06-29T18:22:27.931Z,2.87
2018-06-29T18:25:10.641Z,2.50
2018-06-29T18:27:51.314Z,2.73
2018-06-29T18:30:31.988Z,2.30
2018-06-29T18:33:24.390Z,2.37
2018-06-29T18:36:04.265Z,2.40
2018-06-29T18:38:44.675Z,2.70
2018-06-29T18:41:24.925Z,2.73
2018-06-29T18:44:02.570Z,2.57
2018-06-29T18:46:39.595Z,2.20
2018-06-29T18:49:20.034Z,2.10
2018-06-29T18:52:00.555Z,2.23
2018-06-29T18:54:41.010Z,2.20
2018-06-29T18:57:20.962Z,2.53
2018-06-29T19:00:01.155Z,2.37
2018-06-29T19:02:41.387Z,3.07
2018-06-29T19:05:18.798Z,2.60
2018-06-29T19:07:58.899Z,3.10
2018-06-29T19:10:36.441Z,2.50
2018-06-29T19:13:14.328Z,2.43
2018-06-29T19:15:46.140Z,2.37
2018-06-29T19:18:26.186Z,2.47
2018-06-29T19:20:58.287Z,2.50
2018-06-29T19:23:31.198Z,2.10
2018-06-29T19:26:06.258Z,2.57
2018-06-29T19:28:37.919Z,2.03
2018-06-29T19:31:18.310Z,3.47
2018-06-29T19:33:49.950Z,2.83
2018-06-29T19:36:22.216Z,2.70
2018-06-29T19:39:01.556Z,2.70
2018-06-29T19:41:33.299Z,3.13
2018-06-29T19:44:14.152Z,2.80
2018-06-29T19:46:46.152Z,2.60
2018-06-29T19:49:22.739Z,3.23
2018-06-29T19:51:55.051Z,3.20
2018-06-29T19:54:34.713Z,3.40
2018-06-29T19:57:06.491Z,3.30
2018-06-29T19:59:40.231Z,3.63
2018-06-29T20:02:11.662Z,3.37
2018-06-29T20:04:44.351Z,4.83
2018-06-29T20:07:16.243Z,3.80
2018-06-29T20:09:47.511Z,3.50
2018-06-29T20:12:19.560Z,6.07
2018-06-29T20:14:59.575Z,4.40
2018-06-29T20:17:39.710Z,3.70
2018-06-29T20:20:19.615Z,7.30
2018-06-29T20:22:59.549Z,3.97
2018-06-29T20:25:32.060Z,3.67
2018-06-29T20:28:04.551Z,3.93
2018-06-29T20:30:36.619Z,4.27
2018-06-29T20:33:13.210Z,5.03
2018-06-29T20:35:45.927Z,4.10
2018-06-29T20:38:26.897Z,4.40
2018-06-29T20:41:07.082Z,4.67
2018-06-29T20:43:39.965Z,4.37
2018-06-29T20:46:11.592Z,4.53
2018-06-29T20:48:47.851Z,5.23
2018-06-29T20:51:27.699Z,4.77
2018-06-29T20:53:59.899Z,4.50
2018-06-29T20:56:31.760Z,6.00
2018-06-29T20:59:03.571Z,5.00
2018-06-29T21:01:35.590Z,5.45
2018-06-29T21:04:06.656Z,5.03
2018-06-29T21:06:39.716Z,5.87
2018-06-29T21:09:20.045Z,5.10
2018-06-29T21:12:00.163Z,5.80
2018-06-29T21:14:31.588Z,5.80
2018-06-29T21:17:10.759Z,7.40
2018-06-29T21:19:47.508Z,5.63
2018-06-29T21:22:19.498Z,5.90
2018-06-29T21:24:56.938Z,6.73
2018-06-29T21:27:29.219Z,6.60
2018-06-29T21:30:01.209Z,6.50
2018-06-29T21:32:34.787Z,6.37
2018-06-29T21:35:07.826Z,6.77
2018-06-29T21:37:39.856Z,6.73
2018-06-29T21:40:12.635Z,7.00
2018-06-29T21:42:46.895Z,6.10
2018-06-29T21:45:22.085Z,6.70
2018-06-29T21:47:53.095Z,7.00
2018-06-29T21:53:32.137Z,7.13
2018-06-29T21:56:06.874Z,8.43
2018-06-29T21:58:38.405Z,7.20
2018-06-29T22:01:09.665Z,6.93
2018-06-29T22:03:41.885Z,7.03
2018-06-29T22:06:13.355Z,7.23
2018-06-29T22:08:44.905Z,6.93
2018-06-29T22:11:15.855Z,6.50
2018-06-29T22:13:48.825Z,6.50
2018-06-29T22:16:23.426Z,6.70
2018-06-29T22:18:54.726Z,6.80
2018-06-29T22:21:27.006Z,6.60
2018-06-29T22:24:02.115Z,6.73
2018-06-29T22:26:33.486Z,6.77
2018-06-29T22:29:06.036Z,7.17
2018-06-29T22:31:40.076Z,6.40
2018-06-29T22:34:19.809Z,7.10
2018-06-29T22:36:59.719Z,6.93
2018-06-29T22:39:39.727Z,7.00
2018-06-29T22:42:20.046Z,7.13
2018-06-29T22:45:00.297Z,7.07
2018-06-29T22:47:32.603Z,6.80
2018-06-29T22:50:04.209Z,6.67
2018-06-29T22:52:43.846Z,7.27
2018-06-29T22:55:15.026Z,7.17
2018-06-29T22:57:46.316Z,6.50
2018-06-29T23:00:18.401Z,6.50
2018-06-29T23:03:00.744Z,6.77
2018-06-29T23:05:32.814Z,6.70
2018-06-29T23:08:03.737Z,6.70
2018-06-29T23:10:38.837Z,6.70
2018-06-29T23:13:19.194Z,7.00
2018-06-29T23:15:52.311Z,7.40
2018-06-29T23:18:23.830Z,8.07
2018-06-29T23:20:59.531Z,7.63
2018-06-29T23:23:30.961Z,7.53
2018-06-29T23:26:03.621Z,7.47
2018-06-29T23:28:35.314Z,7.50
2018-06-29T23:31:06.611Z,7.80
2018-06-29T23:33:38.910Z,7.03
2018-06-29T23:36:10.590Z,7.47
2018-06-29T23:38:42.211Z,7.83
2018-06-29T23:41:13.440Z,7.00
2018-06-29T23:43:46.080Z,7.23
2018-06-29T23:46:19.584Z,7.27
2018-06-29T23:48:51.240Z,7.20
2018-06-29T23:51:23.082Z,7.73
2018-06-29T23:53:54.491Z,7.83
2018-06-29T23:56:25.740Z,7.10
2018-06-29T23:58:57.300Z,7.00
